aviador You're here:

LBSF Decoded Metar

SOFIA in BULGARIA
Report Time2018-06-21 02:30:00
UTC Time2018-06-21 02:46:29
Flight Rules vfr VFR
WindCalm
Visibility9999 m
Phenomena:N/A
Clouds:N/A
Expected CloudBase > 800 ft AGL from Temp-Dew spread
CeilingNone
Temp16°C (ISA +5)
Dew Point14°C (88% RH)
QNH1020 hPa
Density Alt2,510 ft
Elevation1,952 ft
Report Wrong Elevation
Raw Report
LBSF 210230Z 00000KT CAVOK 16/14 Q1020 NOSIG=

Extra information for LBSF:More info

Metar Taf Metar & Taf Last 4 Metars F.Rules Stats Wind Profile Meteogram Temp Stats Airport Information Weather charts Add Link Nearby VenuesMetar ALERT Operation Metar Decoded Social comments